createdAt,value
2018-06-22T00:00:36.232Z,0.00
2018-06-22T00:01:36.272Z,0.00
2018-06-22T00:02:36.303Z,0.00
2018-06-22T00:03:36.340Z,0.00
2018-06-22T00:04:36.375Z,0.00
2018-06-22T00:05:36.412Z,0.00
2018-06-22T00:06:36.448Z,0.00
2018-06-22T00:07:36.483Z,0.00
2018-06-22T00:08:36.520Z,0.00
2018-06-22T00:09:36.555Z,0.00
2018-06-22T00:10:36.592Z,0.00
2018-06-22T00:11:36.631Z,0.00
2018-06-22T00:12:36.664Z,0.00
2018-06-22T00:13:36.698Z,0.00
2018-06-22T00:14:36.735Z,0.00
2018-06-22T00:15:36.772Z,0.00
2018-06-22T00:16:36.809Z,0.00
2018-06-22T00:17:36.848Z,0.00
2018-06-22T00:18:36.879Z,0.00
2018-06-22T00:19:36.917Z,0.00
2018-06-22T00:20:36.952Z,0.00
2018-06-22T00:21:36.990Z,0.00
2018-06-22T00:22:37.025Z,0.00
2018-06-22T00:23:37.060Z,0.00
2018-06-22T00:24:37.096Z,0.00
2018-06-22T00:25:37.131Z,0.00
2018-06-22T00:26:37.167Z,0.00
2018-06-22T00:27:37.205Z,0.00
2018-06-22T00:28:37.240Z,0.00
2018-06-22T00:29:37.274Z,0.00
2018-06-22T00:30:37.319Z,0.00
2018-06-22T00:31:37.347Z,0.00
2018-06-22T00:32:37.382Z,0.00
2018-06-22T00:33:37.418Z,0.00
2018-06-22T00:34:37.505Z,0.00
2018-06-22T00:35:37.490Z,0.00
2018-06-22T00:36:37.527Z,0.00
2018-06-22T00:37:37.561Z,0.00
2018-06-22T00:38:37.597Z,0.00
2018-06-22T00:39:37.640Z,0.00
2018-06-22T00:40:37.671Z,0.00
2018-06-22T00:41:37.706Z,0.00
2018-06-22T00:42:37.742Z,0.00
2018-06-22T00:43:37.784Z,0.00
2018-06-22T00:44:37.826Z,0.00
2018-06-22T00:45:37.878Z,0.00
2018-06-22T00:46:37.886Z,0.00
2018-06-22T00:47:37.923Z,0.00
2018-06-22T00:48:37.961Z,0.00
2018-06-22T00:49:37.998Z,0.00
2018-06-22T00:50:38.040Z,0.00
2018-06-22T00:51:38.071Z,0.00
2018-06-22T00:52:38.105Z,0.00
2018-06-22T00:53:38.141Z,0.00
2018-06-22T00:54:38.185Z,0.00
2018-06-22T00:55:38.214Z,0.00
2018-06-22T00:56:38.250Z,0.00
2018-06-22T00:57:38.285Z,0.00
2018-06-22T00:58:38.321Z,0.00
2018-06-22T00:59:38.363Z,0.00
2018-06-22T01:00:38.395Z,0.00
2018-06-22T01:01:38.429Z,0.00
2018-06-22T01:02:38.465Z,0.00
2018-06-22T01:03:38.502Z,0.00
2018-06-22T01:04:38.538Z,0.00
2018-06-22T01:05:38.575Z,0.00
2018-06-22T01:06:38.610Z,0.00
2018-06-22T01:07:38.650Z,0.00
2018-06-22T01:08:38.683Z,0.00
2018-06-22T01:09:38.720Z,0.00
2018-06-22T01:10:38.762Z,0.00
2018-06-22T01:11:38.792Z,0.00
2018-06-22T01:12:38.827Z,0.00
2018-06-22T01:13:38.863Z,0.00
2018-06-22T01:14:38.902Z,0.00
2018-06-22T01:15:38.936Z,0.00
2018-06-22T01:16:38.973Z,0.00
2018-06-22T01:17:39.008Z,0.00
2018-06-22T01:18:39.046Z,0.00
2018-06-22T01:19:39.087Z,0.00
2018-06-22T01:20:39.118Z,0.00
2018-06-22T01:21:39.153Z,0.00
2018-06-22T01:22:39.190Z,0.00
2018-06-22T01:23:39.225Z,0.00
2018-06-22T01:24:39.263Z,0.00
2018-06-22T01:25:39.301Z,0.00
2018-06-22T01:26:39.334Z,0.00
2018-06-22T01:27:39.375Z,0.00
2018-06-22T01:28:39.408Z,0.00
2018-06-22T01:29:39.442Z,0.00
2018-06-22T01:30:39.481Z,0.00
2018-06-22T01:31:39.517Z,0.00
2018-06-22T01:32:39.552Z,0.00
2018-06-22T01:33:39.589Z,0.00
2018-06-22T01:34:39.625Z,0.00
2018-06-22T01:35:39.661Z,0.00
2018-06-22T01:36:39.698Z,0.00
2018-06-22T01:37:39.735Z,0.00
2018-06-22T01:38:39.771Z,0.00
2018-06-22T01:39:39.807Z,0.00
2018-06-22T01:40:39.842Z,0.00
2018-06-22T01:41:39.879Z,0.00
2018-06-22T01:42:39.917Z,0.00
2018-06-22T01:43:39.952Z,0.00
2018-06-22T01:44:39.989Z,0.00
2018-06-22T01:45:40.025Z,0.00
2018-06-22T01:46:40.065Z,0.00
2018-06-22T01:47:40.099Z,0.00
2018-06-22T01:48:40.135Z,0.00
2018-06-22T01:49:40.170Z,0.00
2018-06-22T01:50:40.207Z,0.00
2018-06-22T01:51:40.243Z,0.00
2018-06-22T01:52:40.282Z,0.00
2018-06-22T01:53:40.318Z,0.00
2018-06-22T01:54:40.355Z,0.00
2018-06-22T01:55:40.389Z,0.00
2018-06-22T01:56:40.425Z,0.00
2018-06-22T01:57:40.462Z,0.00
2018-06-22T01:58:40.498Z,0.00
2018-06-22T01:59:40.538Z,0.00
2018-06-22T02:00:40.571Z,0.00
2018-06-22T02:01:40.608Z,0.00
2018-06-22T02:02:40.644Z,0.00
2018-06-22T02:03:40.681Z,0.00
2018-06-22T02:04:40.718Z,0.00
2018-06-22T02:05:40.753Z,0.00
2018-06-22T02:06:40.793Z,0.00
2018-06-22T02:07:40.826Z,0.00
2018-06-22T02:08:40.862Z,0.00
2018-06-22T02:09:40.899Z,0.00
2018-06-22T02:10:40.935Z,0.00
2018-06-22T02:11:40.972Z,0.00
2018-06-22T02:12:41.008Z,0.00
2018-06-22T02:13:41.044Z,0.00
2018-06-22T02:14:41.081Z,0.00
2018-06-22T02:15:41.116Z,0.00
2018-06-22T02:16:41.153Z,0.00
2018-06-22T02:17:41.189Z,0.00
2018-06-22T02:18:41.226Z,0.00
2018-06-22T02:19:41.263Z,0.00
2018-06-22T02:20:41.301Z,0.00
2018-06-22T02:21:41.338Z,0.00
2018-06-22T02:22:41.412Z,0.00
2018-06-22T02:23:41.408Z,0.00
2018-06-22T02:24:41.449Z,0.00
2018-06-22T02:25:41.480Z,0.00
2018-06-22T02:26:41.527Z,0.00
2018-06-22T02:27:41.555Z,0.00
2018-06-22T02:28:41.596Z,0.00
2018-06-22T02:29:41.628Z,0.00
2018-06-22T02:30:41.674Z,0.00
2018-06-22T02:31:41.702Z,0.00
2018-06-22T02:32:41.739Z,0.00
2018-06-22T02:33:41.773Z,0.00
2018-06-22T02:34:41.814Z,0.00
2018-06-22T02:35:41.848Z,4.00
2018-06-22T02:36:41.882Z,4.00
2018-06-22T02:37:41.920Z,4.00
2018-06-22T02:38:41.958Z,0.00
2018-06-22T02:39:41.993Z,0.00
2018-06-22T02:40:42.104Z,4.00
2018-06-22T02:41:42.067Z,4.00
2018-06-22T02:42:42.100Z,4.00
2018-06-22T02:43:42.137Z,4.00
2018-06-22T02:44:42.177Z,4.00
2018-06-22T02:45:42.209Z,4.00
2018-06-22T02:46:42.247Z,4.00
2018-06-22T02:47:42.286Z,4.00
2018-06-22T02:48:42.321Z,8.00
2018-06-22T02:49:42.355Z,4.00
2018-06-22T02:50:42.393Z,4.00
2018-06-22T02:51:42.431Z,8.00
2018-06-22T02:52:42.467Z,8.00
2018-06-22T02:53:42.502Z,8.00
2018-06-22T02:54:42.540Z,12.00
2018-06-22T02:55:42.577Z,12.00
2018-06-22T02:56:42.613Z,12.00
2018-06-22T02:57:42.649Z,16.00
2018-06-22T02:58:42.685Z,16.00
2018-06-22T02:59:42.723Z,24.00
2018-06-22T03:00:42.764Z,28.00
2018-06-22T03:01:42.794Z,44.00
2018-06-22T03:02:42.831Z,64.00
2018-06-22T03:03:42.868Z,84.00
2018-06-22T03:04:42.903Z,108.00
2018-06-22T03:05:42.945Z,128.00
2018-06-22T03:06:42.977Z,128.00
2018-06-22T03:07:43.017Z,120.00
2018-06-22T03:08:43.057Z,136.00
2018-06-22T03:09:43.084Z,164.00
2018-06-22T03:10:43.121Z,196.00
2018-06-22T03:11:43.160Z,200.00
2018-06-22T03:12:43.196Z,188.00
2018-06-22T03:13:43.238Z,184.00
2018-06-22T03:14:43.268Z,180.00
2018-06-22T03:15:43.307Z,176.00
2018-06-22T03:16:43.339Z,188.00
2018-06-22T03:17:43.373Z,200.00
2018-06-22T03:18:43.411Z,216.00
2018-06-22T03:19:43.448Z,224.00
2018-06-22T03:20:43.485Z,200.00
2018-06-22T03:21:43.520Z,168.00
2018-06-22T03:22:43.562Z,160.00
2018-06-22T03:23:43.591Z,156.00
2018-06-22T03:24:43.630Z,152.00
2018-06-22T03:25:43.665Z,148.00
2018-06-22T03:26:43.701Z,152.00
2018-06-22T03:27:43.738Z,188.00
2018-06-22T03:28:43.778Z,196.00
2018-06-22T03:29:43.810Z,184.00
2018-06-22T03:30:43.848Z,172.00
2018-06-22T03:31:43.884Z,196.00
2018-06-22T03:32:43.921Z,196.00
2018-06-22T03:33:43.957Z,248.00
2018-06-22T03:34:43.992Z,256.00
2018-06-22T03:35:44.030Z,240.00
2018-06-22T03:36:44.067Z,256.00
2018-06-22T03:37:44.103Z,248.00
2018-06-22T03:38:44.138Z,240.00
2018-06-22T03:39:44.182Z,288.00
2018-06-22T03:40:44.224Z,324.00
2018-06-22T03:41:44.249Z,300.00
2018-06-22T03:42:44.282Z,252.00
2018-06-22T03:43:44.322Z,264.00
2018-06-22T03:44:44.362Z,332.00
2018-06-22T03:45:44.394Z,336.00
2018-06-22T03:46:44.430Z,308.00
2018-06-22T03:47:44.464Z,268.00
2018-06-22T03:48:44.502Z,276.00
2018-06-22T03:49:44.537Z,300.00
2018-06-22T03:50:44.582Z,292.00
2018-06-22T03:51:44.612Z,324.00
2018-06-22T03:52:44.647Z,348.00
2018-06-22T03:53:44.686Z,396.00
2018-06-22T03:54:44.730Z,496.00
2018-06-22T03:55:44.757Z,608.00
2018-06-22T03:56:44.881Z,624.00
2018-06-22T03:57:44.828Z,652.00
2018-06-22T03:58:44.866Z,616.00
2018-06-22T03:59:44.901Z,552.00
2018-06-22T04:00:44.937Z,548.00
2018-06-22T04:01:44.978Z,632.00
2018-06-22T04:02:45.013Z,1064.00
2018-06-22T04:03:45.050Z,1528.00
2018-06-22T04:04:45.085Z,1652.00
2018-06-22T04:05:45.119Z,1316.00
2018-06-22T04:06:45.157Z,1016.00
2018-06-22T04:07:45.200Z,828.00
2018-06-22T04:08:45.229Z,704.00
2018-06-22T04:09:45.265Z,612.00
2018-06-22T04:10:45.302Z,560.00
2018-06-22T04:11:45.339Z,540.00
2018-06-22T04:12:45.375Z,540.00
2018-06-22T04:13:45.418Z,528.00
2018-06-22T04:14:45.448Z,532.00
2018-06-22T04:15:45.484Z,548.00
2018-06-22T04:16:45.522Z,540.00
2018-06-22T04:17:45.557Z,508.00
2018-06-22T04:18:45.592Z,512.00
2018-06-22T04:19:45.629Z,524.00
2018-06-22T04:20:45.665Z,552.00
2018-06-22T04:21:45.700Z,648.00
2018-06-22T04:22:45.745Z,716.00
2018-06-22T04:23:45.774Z,776.00
2018-06-22T04:24:45.811Z,768.00
2018-06-22T04:25:45.846Z,820.00
2018-06-22T04:26:45.888Z,948.00
2018-06-22T04:27:45.918Z,1160.00
2018-06-22T04:28:45.961Z,1332.00
2018-06-22T04:29:45.992Z,1460.00
2018-06-22T04:30:46.029Z,1284.00
2018-06-22T04:31:46.068Z,1176.00
2018-06-22T04:32:46.103Z,1096.00
2018-06-22T04:33:46.137Z,1132.00
2018-06-22T04:34:46.174Z,1076.00
2018-06-22T04:35:46.211Z,1028.00
2018-06-22T04:36:46.248Z,1088.00
2018-06-22T04:37:46.284Z,1080.00
2018-06-22T04:38:46.431Z,1140.00
2018-06-22T04:39:46.357Z,1020.00
2018-06-22T04:40:46.393Z,932.00
2018-06-22T04:41:46.428Z,784.00
2018-06-22T04:42:46.465Z,696.00
2018-06-22T04:43:46.501Z,680.00
2018-06-22T04:44:46.539Z,728.00
2018-06-22T04:45:46.575Z,772.00
2018-06-22T04:46:46.616Z,840.00
2018-06-22T04:47:46.772Z,1040.00
2018-06-22T04:48:46.683Z,1312.00
2018-06-22T04:49:46.718Z,1528.00
2018-06-22T04:50:46.756Z,1684.00
2018-06-22T04:51:46.792Z,1820.00
2018-06-22T04:52:46.829Z,1836.00
2018-06-22T04:53:46.866Z,1500.00
2018-06-22T04:54:46.900Z,1468.00
2018-06-22T04:55:46.947Z,1312.00
2018-06-22T04:56:46.972Z,1260.00
2018-06-22T04:57:47.011Z,1304.00
2018-06-22T04:58:47.045Z,1380.00
2018-06-22T04:59:47.082Z,1372.00
2018-06-22T05:00:47.119Z,1216.00
2018-06-22T05:01:47.155Z,1200.00
2018-06-22T05:02:47.193Z,1220.00
2018-06-22T05:03:47.228Z,1196.00
2018-06-22T05:04:47.265Z,1352.00
2018-06-22T05:05:47.300Z,1428.00
2018-06-22T05:06:47.336Z,1860.00
2018-06-22T05:07:47.372Z,2716.00
2018-06-22T05:08:47.410Z,2984.00
2018-06-22T05:09:47.447Z,2344.00
2018-06-22T05:10:47.540Z,2000.00
2018-06-22T05:11:47.518Z,2396.00
2018-06-22T05:12:47.558Z,2792.00
2018-06-22T05:13:47.595Z,2556.00
2018-06-22T05:14:47.630Z,2440.00
2018-06-22T05:15:47.706Z,2628.00
2018-06-22T05:16:47.701Z,3104.00
2018-06-22T05:17:47.736Z,3512.00
2018-06-22T05:18:47.774Z,3540.00
2018-06-22T05:19:47.810Z,3432.00
2018-06-22T05:20:47.845Z,3308.00
2018-06-22T05:21:47.882Z,3100.00
2018-06-22T05:22:47.920Z,3280.00
2018-06-22T05:23:47.954Z,3644.00
2018-06-22T05:24:48.022Z,2876.00
2018-06-22T05:25:48.025Z,2356.00
2018-06-22T05:26:48.065Z,2912.00
2018-06-22T05:27:48.097Z,3704.00
2018-06-22T05:28:48.137Z,4228.00
2018-06-22T05:29:48.169Z,3820.00
2018-06-22T05:30:48.207Z,3380.00
2018-06-22T05:31:48.244Z,3720.00
2018-06-22T05:32:48.280Z,3740.00
2018-06-22T05:33:48.316Z,3912.00
2018-06-22T05:34:48.352Z,4212.00
2018-06-22T05:35:48.395Z,4648.00
2018-06-22T05:36:48.426Z,5604.00
2018-06-22T05:37:48.461Z,6716.00
2018-06-22T05:38:48.548Z,5680.00
2018-06-22T05:39:48.534Z,5704.00
2018-06-22T05:40:48.578Z,5492.00
2018-06-22T05:41:48.609Z,4884.00
2018-06-22T05:42:48.645Z,3536.00
2018-06-22T05:43:48.678Z,3152.00
2018-06-22T05:44:48.717Z,3408.00
2018-06-22T05:45:48.753Z,3396.00
2018-06-22T05:46:48.790Z,4316.00
2018-06-22T05:47:48.825Z,4780.00
2018-06-22T05:48:48.863Z,4916.00
2018-06-22T05:49:48.897Z,4712.00
2018-06-22T05:50:48.995Z,5100.00
2018-06-22T05:51:48.973Z,4948.00
2018-06-22T05:52:49.010Z,4424.00
2018-06-22T05:53:49.044Z,4496.00
2018-06-22T05:54:49.080Z,4480.00
2018-06-22T05:55:49.119Z,4280.00
2018-06-22T05:56:49.243Z,3764.00
2018-06-22T05:57:49.244Z,3652.00
2018-06-22T05:58:49.229Z,3416.00
2018-06-22T05:59:49.264Z,3192.00
2018-06-22T06:00:49.301Z,3320.00
2018-06-22T06:01:49.346Z,3292.00
2018-06-22T06:02:49.372Z,3356.00
2018-06-22T06:03:49.409Z,3248.00
2018-06-22T06:04:49.450Z,2972.00
2018-06-22T06:05:49.492Z,2820.00
2018-06-22T06:06:49.521Z,2936.00
2018-06-22T06:07:49.555Z,3336.00
2018-06-22T06:08:49.594Z,3996.00
2018-06-22T06:09:49.628Z,4540.00
2018-06-22T06:10:49.666Z,5132.00
2018-06-22T06:11:49.701Z,5876.00
2018-06-22T06:12:49.738Z,6936.00
2018-06-22T06:13:49.772Z,8020.00
2018-06-22T06:14:49.809Z,7688.00
2018-06-22T06:15:49.846Z,7408.00
2018-06-22T06:16:49.884Z,8084.00
2018-06-22T06:17:49.921Z,7744.00
2018-06-22T06:18:49.956Z,6780.00
2018-06-22T06:19:50.000Z,5860.00
2018-06-22T06:20:50.031Z,5424.00
2018-06-22T06:21:50.066Z,4964.00
2018-06-22T06:22:50.103Z,4344.00
2018-06-22T06:23:50.140Z,4144.00
2018-06-22T06:24:50.176Z,4788.00
2018-06-22T06:25:50.213Z,5484.00
2018-06-22T06:26:50.250Z,5368.00
2018-06-22T06:27:50.295Z,4840.00
2018-06-22T06:28:50.328Z,4496.00
2018-06-22T06:29:50.359Z,4372.00
2018-06-22T06:30:50.399Z,4456.00
2018-06-22T06:31:50.433Z,4548.00
2018-06-22T06:32:50.477Z,5152.00
2018-06-22T06:33:50.520Z,5568.00
2018-06-22T06:34:50.549Z,5824.00
2018-06-22T06:35:50.580Z,6280.00
2018-06-22T06:36:50.619Z,5856.00
2018-06-22T06:37:50.651Z,5784.00
2018-06-22T06:38:50.689Z,5280.00
2018-06-22T06:39:50.728Z,6040.00
2018-06-22T06:40:50.765Z,6844.00
2018-06-22T06:41:50.844Z,7400.00
2018-06-22T06:42:50.837Z,4812.00
2018-06-22T06:43:50.872Z,3920.00
2018-06-22T06:44:50.909Z,4068.00
2018-06-22T06:45:50.946Z,4324.00
2018-06-22T06:46:50.984Z,5528.00
2018-06-22T06:47:51.022Z,5448.00
2018-06-22T06:48:51.054Z,4976.00
2018-06-22T06:49:51.091Z,3804.00
2018-06-22T06:50:51.131Z,3748.00
2018-06-22T06:51:51.166Z,4300.00
2018-06-22T06:52:51.206Z,4600.00
2018-06-22T06:53:51.238Z,4264.00
2018-06-22T06:54:51.273Z,4380.00
2018-06-22T06:55:51.314Z,4540.00
2018-06-22T06:56:51.390Z,4712.00
2018-06-22T06:57:51.387Z,4912.00
2018-06-22T06:58:51.423Z,6136.00
2018-06-22T06:59:51.457Z,6772.00
2018-06-22T07:00:51.494Z,5856.00
2018-06-22T07:01:51.530Z,5540.00
2018-06-22T07:02:51.565Z,5692.00
2018-06-22T07:03:51.612Z,5864.00
2018-06-22T07:04:51.638Z,6500.00
2018-06-22T07:05:51.675Z,7088.00
2018-06-22T07:06:51.711Z,7004.00
2018-06-22T07:07:51.748Z,5620.00
2018-06-22T07:08:51.783Z,4976.00
2018-06-22T07:09:51.820Z,4048.00
2018-06-22T07:10:51.863Z,3652.00
2018-06-22T07:11:51.893Z,5828.00
2018-06-22T07:12:51.933Z,7044.00
2018-06-22T07:13:51.965Z,6908.00
2018-06-22T07:14:52.002Z,6920.00
2018-06-22T07:15:52.040Z,6368.00
2018-06-22T07:16:52.076Z,5164.00
2018-06-22T07:17:52.112Z,5964.00
2018-06-22T07:18:52.147Z,5032.00
2018-06-22T07:19:52.185Z,4888.00
2018-06-22T07:20:52.220Z,4768.00
2018-06-22T07:21:52.256Z,4864.00
2018-06-22T07:22:52.297Z,5384.00
2018-06-22T07:23:52.332Z,5260.00
2018-06-22T07:24:52.374Z,4844.00
2018-06-22T07:25:52.402Z,5156.00
2018-06-22T07:26:52.454Z,4760.00
2018-06-22T07:27:52.475Z,4676.00
2018-06-22T07:28:52.526Z,5208.00
2018-06-22T07:29:52.548Z,5392.00
2018-06-22T07:30:52.584Z,5068.00
2018-06-22T07:31:52.622Z,4700.00
2018-06-22T07:32:52.657Z,4368.00
2018-06-22T07:33:52.692Z,4060.00
2018-06-22T07:34:52.729Z,3424.00
2018-06-22T07:35:52.768Z,3160.00
2018-06-22T07:36:52.801Z,3192.00
2018-06-22T07:37:52.935Z,3428.00
2018-06-22T07:38:52.873Z,4032.00
2018-06-22T07:39:52.908Z,4440.00
2018-06-22T07:40:52.944Z,5840.00
2018-06-22T07:41:52.982Z,6204.00
2018-06-22T07:42:53.017Z,6336.00
2018-06-22T07:43:53.121Z,6664.00
2018-06-22T07:44:53.089Z,6832.00
2018-06-22T07:45:53.125Z,6796.00
2018-06-22T07:46:53.171Z,7444.00
2018-06-22T07:47:53.196Z,7680.00
2018-06-22T07:48:53.244Z,8512.00
2018-06-22T07:49:53.335Z,8412.00
2018-06-22T07:50:53.311Z,7216.00
2018-06-22T07:51:53.343Z,6816.00
2018-06-22T07:52:53.382Z,8172.00
2018-06-22T07:53:53.415Z,9632.00
2018-06-22T07:54:53.452Z,14176.00
2018-06-22T07:55:53.489Z,13976.00
2018-06-22T07:56:53.535Z,10452.00
2018-06-22T07:57:53.591Z,10700.00
2018-06-22T07:58:53.651Z,10500.00
2018-06-22T07:59:53.634Z,9644.00
2018-06-22T08:00:53.674Z,9716.00
2018-06-22T08:01:53.711Z,8668.00
2018-06-22T08:02:53.745Z,8876.00
2018-06-22T08:03:53.783Z,9516.00
2018-06-22T08:04:53.818Z,10440.00
2018-06-22T08:05:53.853Z,9000.00
2018-06-22T08:06:53.892Z,8836.00
2018-06-22T08:07:53.929Z,7884.00
2018-06-22T08:08:53.971Z,6948.00
2018-06-22T08:09:54.000Z,6336.00
2018-06-22T08:10:54.039Z,6952.00
2018-06-22T08:11:54.077Z,7560.00
2018-06-22T08:12:54.117Z,6428.00
2018-06-22T08:13:54.158Z,5472.00
2018-06-22T08:14:54.186Z,5256.00
2018-06-22T08:15:54.223Z,5268.00
2018-06-22T08:16:54.286Z,5100.00
2018-06-22T08:17:54.295Z,5080.00
2018-06-22T08:18:54.332Z,5532.00
2018-06-22T08:19:54.379Z,5800.00
2018-06-22T08:20:54.406Z,5744.00
2018-06-22T08:21:54.448Z,5508.00
2018-06-22T08:22:54.489Z,5292.00
2018-06-22T08:23:54.525Z,5352.00
2018-06-22T08:24:54.554Z,6540.00
2018-06-22T08:25:54.592Z,6828.00
2018-06-22T08:26:54.628Z,5784.00
2018-06-22T08:27:54.665Z,5708.00
2018-06-22T08:28:54.702Z,5100.00
2018-06-22T08:29:54.741Z,4464.00
2018-06-22T08:30:54.775Z,4648.00
2018-06-22T08:31:54.814Z,4212.00
2018-06-22T08:32:54.848Z,4456.00
2018-06-22T08:33:54.884Z,4412.00
2018-06-22T08:34:55.043Z,3968.00
2018-06-22T08:35:54.962Z,3692.00
2018-06-22T08:36:54.995Z,3848.00
2018-06-22T08:37:55.033Z,3972.00
2018-06-22T08:38:55.077Z,4352.00
2018-06-22T08:39:55.106Z,3900.00
2018-06-22T08:40:55.143Z,4512.00
2018-06-22T08:41:55.256Z,5012.00
2018-06-22T08:42:55.216Z,3780.00
2018-06-22T08:43:55.251Z,3476.00
2018-06-22T08:44:55.289Z,3216.00
2018-06-22T08:45:55.330Z,3064.00
2018-06-22T08:46:55.361Z,3204.00
2018-06-22T08:47:55.398Z,3916.00
2018-06-22T08:48:55.462Z,3480.00
2018-06-22T08:49:55.470Z,2640.00
2018-06-22T08:50:55.507Z,2460.00
2018-06-22T08:51:55.549Z,2664.00
2018-06-22T08:52:55.582Z,2864.00
2018-06-22T08:53:55.625Z,3008.00
2018-06-22T08:54:55.655Z,2904.00
2018-06-22T08:55:55.691Z,3092.00
2018-06-22T08:56:55.728Z,3892.00
2018-06-22T08:57:55.771Z,3920.00
2018-06-22T08:58:55.800Z,4636.00
2018-06-22T08:59:55.850Z,5576.00
2018-06-22T09:00:55.875Z,5768.00
2018-06-22T09:01:55.909Z,6244.00
2018-06-22T09:02:55.945Z,5844.00
2018-06-22T09:03:55.982Z,6080.00
2018-06-22T09:04:56.020Z,5384.00
2018-06-22T09:05:56.056Z,5576.00
2018-06-22T09:06:56.100Z,6468.00
2018-06-22T09:07:56.138Z,5132.00
2018-06-22T09:08:56.216Z,4020.00
2018-06-22T09:09:56.202Z,4136.00
2018-06-22T09:10:56.243Z,4380.00
2018-06-22T09:11:56.276Z,5136.00
2018-06-22T09:12:56.316Z,6000.00
2018-06-22T09:13:56.347Z,6428.00
2018-06-22T09:14:56.383Z,7796.00
2018-06-22T09:15:56.427Z,9624.00
2018-06-22T09:16:56.455Z,12204.00
2018-06-22T09:17:56.497Z,12960.00
2018-06-22T09:18:56.529Z,16992.00
2018-06-22T09:19:56.566Z,14756.00
2018-06-22T09:20:56.605Z,13468.00
2018-06-22T09:21:56.638Z,13416.00
2018-06-22T09:22:56.679Z,11164.00
2018-06-22T09:23:56.723Z,12408.00
2018-06-22T09:24:56.750Z,12076.00
2018-06-22T09:25:56.789Z,8832.00
2018-06-22T09:26:56.823Z,9272.00
2018-06-22T09:27:56.860Z,9476.00
2018-06-22T09:28:56.922Z,7556.00
2018-06-22T09:29:56.933Z,7984.00
2018-06-22T09:30:56.984Z,11852.00
2018-06-22T09:31:57.011Z,8840.00
2018-06-22T09:32:57.052Z,6948.00
2018-06-22T09:33:57.087Z,6908.00
2018-06-22T09:34:57.122Z,7068.00
2018-06-22T09:35:57.155Z,6784.00
2018-06-22T09:36:57.193Z,6280.00
2018-06-22T09:37:57.231Z,6484.00
2018-06-22T09:38:57.273Z,6304.00
2018-06-22T09:39:57.304Z,7168.00
2018-06-22T09:40:57.343Z,9656.00
2018-06-22T09:41:57.382Z,9256.00
2018-06-22T09:42:57.565Z,10188.00
2018-06-22T09:43:57.451Z,11688.00
2018-06-22T09:44:57.512Z,11952.00
2018-06-22T09:45:57.545Z,11408.00
2018-06-22T09:46:57.677Z,14952.00
2018-06-22T09:47:57.601Z,16704.00
2018-06-22T09:48:57.666Z,17056.00
2018-06-22T09:49:57.677Z,19232.00
2018-06-22T09:50:57.713Z,22368.00
2018-06-22T09:51:57.755Z,20480.00
2018-06-22T09:52:57.837Z,22048.00
2018-06-22T09:53:57.833Z,24928.00
2018-06-22T09:54:57.864Z,22752.00
2018-06-22T09:55:57.902Z,19424.00
2018-06-22T09:56:57.939Z,17120.00
2018-06-22T09:57:57.977Z,13660.00
2018-06-22T09:58:58.018Z,15460.00
2018-06-22T09:59:58.053Z,18720.00
2018-06-22T10:00:58.099Z,25408.00
2018-06-22T10:01:58.128Z,23488.00
2018-06-22T10:02:58.167Z,23424.00
2018-06-22T10:03:58.207Z,21728.00
2018-06-22T10:04:58.243Z,17760.00
2018-06-22T10:05:58.344Z,13852.00
2018-06-22T10:06:58.321Z,14336.00
2018-06-22T10:07:58.359Z,20672.00
2018-06-22T10:08:58.403Z,24128.00
2018-06-22T10:09:58.436Z,27424.00
2018-06-22T10:10:58.472Z,22400.00
2018-06-22T10:11:58.524Z,17504.00
2018-06-22T10:12:58.557Z,17536.00
2018-06-22T10:13:58.588Z,18528.00
2018-06-22T10:14:58.627Z,19360.00
2018-06-22T10:15:58.670Z,23680.00
2018-06-22T10:16:58.710Z,24832.00
2018-06-22T10:17:58.752Z,21568.00
2018-06-22T10:18:58.782Z,20576.00
2018-06-22T10:19:58.832Z,18432.00
2018-06-22T10:20:58.859Z,14528.00
2018-06-22T10:21:58.905Z,13704.00
2018-06-22T10:22:58.936Z,16256.00
2018-06-22T10:23:58.982Z,20032.00
2018-06-22T10:24:59.014Z,24448.00
2018-06-22T10:25:59.068Z,25152.00
2018-06-22T10:26:59.100Z,22688.00
2018-06-22T10:27:59.128Z,23008.00
2018-06-22T10:28:59.169Z,24672.00
2018-06-22T10:29:59.205Z,21760.00
2018-06-22T10:30:59.245Z,15436.00
2018-06-22T10:31:59.284Z,10248.00
2018-06-22T10:32:59.331Z,8156.00
2018-06-22T10:33:59.415Z,9048.00
2018-06-22T10:34:59.400Z,13064.00
2018-06-22T10:35:59.442Z,15340.00
2018-06-22T10:36:59.482Z,17408.00
2018-06-22T10:37:59.518Z,12972.00
2018-06-22T10:38:59.554Z,12896.00
2018-06-22T10:39:59.600Z,15620.00
2018-06-22T10:40:59.632Z,19232.00
2018-06-22T10:41:59.675Z,19808.00
2018-06-22T10:42:59.709Z,22400.00
2018-06-22T10:43:59.763Z,23424.00
2018-06-22T10:44:59.789Z,21280.00
2018-06-22T10:45:59.835Z,19392.00
2018-06-22T10:46:59.863Z,18592.00
2018-06-22T10:47:59.902Z,18880.00
2018-06-22T10:48:59.941Z,20064.00
2018-06-22T10:49:59.977Z,21216.00
2018-06-22T10:51:00.019Z,19008.00
2018-06-22T10:52:00.057Z,16164.00
2018-06-22T10:53:00.094Z,18624.00
2018-06-22T10:54:00.131Z,21376.00
2018-06-22T10:55:00.178Z,23488.00
2018-06-22T10:56:00.210Z,19296.00
2018-06-22T10:57:00.247Z,13284.00
2018-06-22T10:58:00.290Z,16608.00
2018-06-22T10:59:00.328Z,12396.00
2018-06-22T11:00:00.439Z,13944.00
2018-06-22T11:01:00.403Z,12892.00
2018-06-22T11:02:00.449Z,11588.00
2018-06-22T11:03:00.479Z,12428.00
2018-06-22T11:04:00.519Z,12948.00
2018-06-22T11:05:00.562Z,13568.00
2018-06-22T11:06:00.596Z,9668.00
2018-06-22T11:07:00.638Z,9852.00
2018-06-22T11:08:00.674Z,10996.00
2018-06-22T11:09:00.713Z,11148.00
2018-06-22T11:10:00.749Z,14344.00
2018-06-22T11:11:00.788Z,10984.00
2018-06-22T11:12:00.828Z,10304.00
2018-06-22T11:13:00.870Z,10840.00
2018-06-22T11:14:00.981Z,12588.00
2018-06-22T11:15:00.944Z,10096.00
2018-06-22T11:16:00.987Z,10580.00
2018-06-22T11:17:01.068Z,10308.00
2018-06-22T11:18:01.061Z,11092.00
2018-06-22T11:19:01.113Z,10032.00
2018-06-22T11:20:01.136Z,12480.00
2018-06-22T11:21:01.177Z,16832.00
2018-06-22T11:22:01.212Z,21088.00
2018-06-22T11:23:01.251Z,21280.00
2018-06-22T11:24:01.297Z,20384.00
2018-06-22T11:25:01.330Z,21664.00
2018-06-22T11:26:01.369Z,22304.00
2018-06-22T11:27:01.406Z,21760.00
2018-06-22T11:28:01.447Z,23520.00
2018-06-22T11:29:01.491Z,20480.00
2018-06-22T11:30:01.529Z,20000.00
2018-06-22T11:31:01.569Z,18368.00
2018-06-22T11:32:01.600Z,14076.00
2018-06-22T11:33:01.642Z,12344.00
2018-06-22T11:34:01.687Z,13104.00
2018-06-22T11:35:01.722Z,12460.00
2018-06-22T11:36:01.756Z,13252.00
2018-06-22T11:37:01.802Z,14036.00
2018-06-22T11:38:01.840Z,16768.00
2018-06-22T11:39:01.875Z,17792.00
2018-06-22T11:40:01.970Z,18368.00
2018-06-22T11:41:01.951Z,19904.00
2018-06-22T11:42:01.991Z,19200.00
2018-06-22T11:43:02.038Z,13904.00
2018-06-22T11:44:02.099Z,15652.00
2018-06-22T11:45:02.119Z,19840.00
2018-06-22T11:46:02.150Z,17024.00
2018-06-22T11:47:02.201Z,12116.00
2018-06-22T11:48:02.230Z,9344.00
2018-06-22T11:49:02.266Z,9444.00
2018-06-22T11:50:02.308Z,9596.00
2018-06-22T11:51:02.359Z,8368.00
2018-06-22T11:52:02.384Z,7828.00
2018-06-22T11:53:02.424Z,7484.00
2018-06-22T11:54:02.462Z,7440.00
2018-06-22T11:55:02.510Z,7204.00
2018-06-22T11:56:02.547Z,8388.00
2018-06-22T11:57:02.580Z,10848.00
2018-06-22T11:58:02.619Z,16640.00
2018-06-22T11:59:02.687Z,17888.00
2018-06-22T12:00:02.697Z,21376.00
2018-06-22T12:01:02.736Z,21792.00
2018-06-22T12:02:02.774Z,17760.00
2018-06-22T12:03:02.815Z,13680.00
2018-06-22T12:04:02.853Z,12564.00
2018-06-22T12:05:02.906Z,9904.00
2018-06-22T12:06:02.937Z,7872.00
2018-06-22T12:07:02.976Z,6412.00
2018-06-22T12:08:03.023Z,6300.00
2018-06-22T12:09:03.058Z,7648.00
2018-06-22T12:10:03.088Z,10632.00
2018-06-22T12:11:03.179Z,16576.00
2018-06-22T12:12:03.171Z,19936.00
2018-06-22T12:13:03.205Z,19744.00
2018-06-22T12:14:03.251Z,16384.00
2018-06-22T12:15:03.290Z,15276.00
2018-06-22T12:16:03.324Z,12536.00
2018-06-22T12:17:03.360Z,12232.00
2018-06-22T12:18:03.402Z,13620.00
2018-06-22T12:19:03.522Z,16480.00
2018-06-22T12:20:03.486Z,20160.00
2018-06-22T12:21:03.525Z,20512.00